Aeroporto :
LOGIN :

Iscrizione | Disclaimer

   EN    FR    IT 

 










Sommario :    VFR   VFR Marginale   IFR   IFR Intensivo   IFR Molto Intensivo
Visibilità : 
Base nubi : 
>= 8 km
>= 3000ft
5 / 8 km
1000 / 3000 ft
1500m / 5 km
500 / 1000 ft
800 / 1500m
200 / 500 ft
< 800m
< 200 ft
Simboli :   Temporali  Nebbia  Neve Forte  Precipitazioni Forti  Vento > 20 kt
SIGMETs :   Varie  Temporali  Ghiacco  Turbolenza  Onda orograficha  Ceneri Vulcaniche







- Altitudine del aeroporto : 370 ft


EBBE - Beauvechain AB

ULTIMO METAR :
  • 121325Z 24010KT 8000 SCT005 BKN007 BKN018 02/01 Q1010 YLO YLO BECMG GRN

METARs OBSOLETI :
  • 121307Z 24010KT 6000 FEW004 BKN006 BKN018 02/01 Q1010 YLO YLO BECMG GRN
  • 121255Z 24010KT 5000 SCT004 BKN006 BKN018 02/01 Q1010 YLO YLO TEMPO AMB
  • 121225Z 24011KT 4000 SCT003 BKN006 BKN018 02/01 Q1009 YLO YLO TEMPO AMB
  • 121155Z 23009KT 4000 SCT003 BKN006 BKN018 01/01 Q1009 YLO YLO TEMPO AMB
  • 121125Z 23010KT 1800 -SHSN SCT003 BKN006 BKN018 01/00 Q1009 YLO YLO TEMPO AMB
  • 121055Z 24010KT 6000 SCT003 BKN006 BKN018 01/00 Q1008 YLO YLO TEMPO AMB

TAF TAF EBBE
Valido dal 12 a 13 ore il 12 a 22 ore UTC


121147Z 1213/1222 25010KT 6000 SCT005 BKN008 BKN020
TEMPO 1213/1215 2500 SHRASN SCT004 BKN006 BKN014TCU
BECMG 1214/1216 21008KT 9999 NSW FEW014 SCT020
BECMG 1216/1218 FEW020
Nessun NOTAM noto per questo aeroporto.



MetMap, La meteo Aeronautica in un colpo d'occhio ! - Copyright ORBIFLY Dicembre 2007 - Disclaimer

ORBIFLY MET'MAP TEAM :

Programmazione e sviluppo : Alexandra Zaïnal
Concezione e sviluppo : Baudouin d'Aumeries
Co-Programmazione e sviluppo : Marc-Olivier Méhu
Supporto tecnico e logistico : Manuel Goepfert
Aiuto per la traduzione : Arnaldo La Scala

Contatto : metmap@orbifly.com




FONTI E CREDITI :

   NOAA